Terminal Aerodrome Forecast
Issued by NWS

Home | Current Version | Previous Version | Text Only | Print | Product List | Glossary On
Versions: 1 2 3 4 5 6 7 8 9 10 11 12 13 14 15 16 17 18
000
FTUS43 KEAX 261720
TAFSTJ
TAF
KSTJ 261720Z 2618/2718 20006KT 6SM -SHRA VCTS SCT060 BKN080CB
      TEMPO 2618/2620 4SM -TSRA BKN050CB
     FM262000 29006KT P6SM BKN080
     FM271000 VRB05KT 4SM BR FEW250
      TEMPO 2710/2713 2SM BR
     FM271300 12008KT P6SM BKN250=

USA.gov is the U.S. government's official web portal to all federal, state and local government web resources and services.